sensor_id;sensor_type;location;lat;lon;timestamp;temperature;humidity
27492;DHT22;14927;51.210;6.838;2022-12-18T00:02:30;1.90;58.60
27492;DHT22;14927;51.210;6.838;2022-12-18T00:05:15;2.00;58.60
27492;DHT22;14927;51.210;6.838;2022-12-18T00:07:59;1.90;58.50
27492;DHT22;14927;51.210;6.838;2022-12-18T00:10:45;1.90;58.50
27492;DHT22;14927;51.210;6.838;2022-12-18T00:13:29;1.90;58.40
27492;DHT22;14927;51.210;6.838;2022-12-18T00:16:20;1.90;58.40
27492;DHT22;14927;51.210;6.838;2022-12-18T00:19:06;1.90;58.30
27492;DHT22;14927;51.210;6.838;2022-12-18T00:21:51;2.10;58.40
27492;DHT22;14927;51.210;6.838;2022-12-18T00:24:36;1.90;58.20
27492;DHT22;14927;51.210;6.838;2022-12-18T00:27:20;1.90;58.20
27492;DHT22;14927;51.210;6.838;2022-12-18T00:30:05;1.90;58.20
27492;DHT22;14927;51.210;6.838;2022-12-18T00:32:50;1.90;58.20
27492;DHT22;14927;51.210;6.838;2022-12-18T00:35:35;1.90;58.20
27492;DHT22;14927;51.210;6.838;2022-12-18T00:38:20;1.90;58.20
27492;DHT22;14927;51.210;6.838;2022-12-18T00:41:05;1.90;58.30
27492;DHT22;14927;51.210;6.838;2022-12-18T00:43:51;1.90;58.20
27492;DHT22;14927;51.210;6.838;2022-12-18T00:46:35;1.90;58.20
27492;DHT22;14927;51.210;6.838;2022-12-18T00:49:20;1.90;58.30
27492;DHT22;14927;51.210;6.838;2022-12-18T00:52:05;1.90;58.20
27492;DHT22;14927;51.210;6.838;2022-12-18T00:54:49;1.90;58.20
27492;DHT22;14927;51.210;6.838;2022-12-18T00:57:34;1.80;58.20
27492;DHT22;14927;51.210;6.838;2022-12-18T01:00:19;1.90;58.30
27492;DHT22;14927;51.210;6.838;2022-12-18T01:03:04;1.90;58.30
27492;DHT22;14927;51.210;6.838;2022-12-18T01:05:49;1.90;58.20
27492;DHT22;14927;51.210;6.838;2022-12-18T01:08:34;1.90;58.20
27492;DHT22;14927;51.210;6.838;2022-12-18T01:11:20;1.80;58.10
27492;DHT22;14927;51.210;6.838;2022-12-18T01:14:05;1.80;58.10
27492;DHT22;14927;51.210;6.838;2022-12-18T01:16:49;1.80;58.10
27492;DHT22;14927;51.210;6.838;2022-12-18T01:19:34;1.80;58.10
27492;DHT22;14927;51.210;6.838;2022-12-18T01:22:19;1.80;58.20
27492;DHT22;14927;51.210;6.838;2022-12-18T01:25:04;1.80;58.10
27492;DHT22;14927;51.210;6.838;2022-12-18T01:27:49;1.80;58.10
27492;DHT22;14927;51.210;6.838;2022-12-18T01:30:34;1.80;58.10
27492;DHT22;14927;51.210;6.838;2022-12-18T01:33:19;1.80;58.00
27492;DHT22;14927;51.210;6.838;2022-12-18T01:36:04;1.70;58.00
27492;DHT22;14927;51.210;6.838;2022-12-18T01:38:49;1.70;58.00
27492;DHT22;14927;51.210;6.838;2022-12-18T01:41:35;1.70;58.00
27492;DHT22;14927;51.210;6.838;2022-12-18T01:48:07;1.70;58.00
27492;DHT22;14927;51.210;6.838;2022-12-18T01:50:52;1.70;58.10
27492;DHT22;14927;51.210;6.838;2022-12-18T01:53:39;1.60;58.10
27492;DHT22;14927;51.210;6.838;2022-12-18T01:56:25;1.70;58.10
27492;DHT22;14927;51.210;6.838;2022-12-18T01:59:11;1.60;58.10
27492;DHT22;14927;51.210;6.838;2022-12-18T02:01:57;1.70;58.20
27492;DHT22;14927;51.210;6.838;2022-12-18T02:04:42;1.60;58.20
27492;DHT22;14927;51.210;6.838;2022-12-18T02:14:47;1.60;58.10
27492;DHT22;14927;51.210;6.838;2022-12-18T02:17:57;1.60;58.10
27492;DHT22;14927;51.210;6.838;2022-12-18T02:20:49;1.60;58.10
27492;DHT22;14927;51.210;6.838;2022-12-18T02:23:54;1.60;58.10
27492;DHT22;14927;51.210;6.838;2022-12-18T02:27:03;1.60;58.20
27492;DHT22;14927;51.210;6.838;2022-12-18T02:29:54;1.60;58.20
27492;DHT22;14927;51.210;6.838;2022-12-18T02:32:43;1.60;58.20
27492;DHT22;14927;51.210;6.838;2022-12-18T02:35:30;1.60;58.20
27492;DHT22;14927;51.210;6.838;2022-12-18T02:38:15;1.70;58.30
27492;DHT22;14927;51.210;6.838;2022-12-18T02:41:02;1.70;58.20
27492;DHT22;14927;51.210;6.838;2022-12-18T02:43:49;1.70;58.10
27492;DHT22;14927;51.210;6.838;2022-12-18T02:46:39;1.70;58.10
27492;DHT22;14927;51.210;6.838;2022-12-18T02:58:34;1.60;57.90
27492;DHT22;14927;51.210;6.838;2022-12-18T03:01:50;1.60;57.90
27492;DHT22;14927;51.210;6.838;2022-12-18T03:05:33;1.70;58.10
27492;DHT22;14927;51.210;6.838;2022-12-18T03:08:08;1.60;58.00
27492;DHT22;14927;51.210;6.838;2022-12-18T03:11:06;1.70;58.10
27492;DHT22;14927;51.210;6.838;2022-12-18T03:13:56;1.70;58.10
27492;DHT22;14927;51.210;6.838;2022-12-18T03:16:42;1.70;58.20
27492;DHT22;14927;51.210;6.838;2022-12-18T03:19:29;1.70;58.20
27492;DHT22;14927;51.210;6.838;2022-12-18T03:22:17;1.60;58.10
27492;DHT22;14927;51.210;6.838;2022-12-18T03:25:05;1.60;58.10
27492;DHT22;14927;51.210;6.838;2022-12-18T03:27:55;1.70;58.20
27492;DHT22;14927;51.210;6.838;2022-12-18T03:30:43;1.60;58.10
27492;DHT22;14927;51.210;6.838;2022-12-18T03:33:54;1.70;58.20
27492;DHT22;14927;51.210;6.838;2022-12-18T03:36:40;1.60;58.00
27492;DHT22;14927;51.210;6.838;2022-12-18T03:39:25;1.70;58.20
27492;DHT22;14927;51.210;6.838;2022-12-18T03:42:18;1.70;58.10
27492;DHT22;14927;51.210;6.838;2022-12-18T03:48:18;1.70;58.00
27492;DHT22;14927;51.210;6.838;2022-12-18T03:51:09;1.60;57.90
27492;DHT22;14927;51.210;6.838;2022-12-18T03:54:00;1.60;58.00
27492;DHT22;14927;51.210;6.838;2022-12-18T03:57:03;1.60;58.00
27492;DHT22;14927;51.210;6.838;2022-12-18T03:59:56;1.60;58.00
27492;DHT22;14927;51.210;6.838;2022-12-18T04:02:46;1.60;58.10
27492;DHT22;14927;51.210;6.838;2022-12-18T04:05:35;1.50;58.10
27492;DHT22;14927;51.210;6.838;2022-12-18T04:08:21;1.50;58.10
27492;DHT22;14927;51.210;6.838;2022-12-18T04:11:06;1.60;58.20
27492;DHT22;14927;51.210;6.838;2022-12-18T04:13:55;1.50;58.20
27492;DHT22;14927;51.210;6.838;2022-12-18T04:16:41;1.50;58.20
27492;DHT22;14927;51.210;6.838;2022-12-18T04:19:26;1.70;58.30
27492;DHT22;14927;51.210;6.838;2022-12-18T04:22:10;1.50;58.30
27492;DHT22;14927;51.210;6.838;2022-12-18T04:24:56;1.50;58.20
27492;DHT22;14927;51.210;6.838;2022-12-18T04:27:40;1.50;58.20
27492;DHT22;14927;51.210;6.838;2022-12-18T04:30:25;1.50;58.30
27492;DHT22;14927;51.210;6.838;2022-12-18T04:33:11;1.50;58.30
27492;DHT22;14927;51.210;6.838;2022-12-18T04:35:56;1.40;58.30
27492;DHT22;14927;51.210;6.838;2022-12-18T04:38:41;1.40;58.30
27492;DHT22;14927;51.210;6.838;2022-12-18T04:41:26;1.40;58.40
27492;DHT22;14927;51.210;6.838;2022-12-18T04:44:11;1.40;58.40
27492;DHT22;14927;51.210;6.838;2022-12-18T04:46:56;1.50;58.50
27492;DHT22;14927;51.210;6.838;2022-12-18T04:49:41;1.40;58.50
27492;DHT22;14927;51.210;6.838;2022-12-18T04:52:26;1.40;58.50
27492;DHT22;14927;51.210;6.838;2022-12-18T04:55:10;1.40;58.40
27492;DHT22;14927;51.210;6.838;2022-12-18T04:57:55;1.40;58.40
27492;DHT22;14927;51.210;6.838;2022-12-18T05:00:40;1.40;58.40
27492;DHT22;14927;51.210;6.838;2022-12-18T05:03:24;1.40;59.10
27492;DHT22;14927;51.210;6.838;2022-12-18T05:06:09;1.40;58.40
27492;DHT22;14927;51.210;6.838;2022-12-18T05:08:54;1.40;58.40
27492;DHT22;14927;51.210;6.838;2022-12-18T05:11:39;1.30;58.40
27492;DHT22;14927;51.210;6.838;2022-12-18T05:14:23;1.40;58.40
27492;DHT22;14927;51.210;6.838;2022-12-18T05:17:08;1.30;58.30
27492;DHT22;14927;51.210;6.838;2022-12-18T05:19:52;1.30;58.30
27492;DHT22;14927;51.210;6.838;2022-12-18T05:22:37;1.30;58.30
27492;DHT22;14927;51.210;6.838;2022-12-18T05:25:23;1.30;58.30
27492;DHT22;14927;51.210;6.838;2022-12-18T05:28:07;1.30;58.30
27492;DHT22;14927;51.210;6.838;2022-12-18T05:30:54;1.30;58.30
27492;DHT22;14927;51.210;6.838;2022-12-18T05:33:40;1.20;58.20
27492;DHT22;14927;51.210;6.838;2022-12-18T05:36:25;1.20;58.30
27492;DHT22;14927;51.210;6.838;2022-12-18T05:39:09;1.30;58.30
27492;DHT22;14927;51.210;6.838;2022-12-18T05:41:54;1.20;58.90
27492;DHT22;14927;51.210;6.838;2022-12-18T05:44:38;1.20;58.30
27492;DHT22;14927;51.210;6.838;2022-12-18T05:47:23;1.20;58.30
27492;DHT22;14927;51.210;6.838;2022-12-18T05:50:08;1.20;59.10
27492;DHT22;14927;51.210;6.838;2022-12-18T05:52:53;1.20;58.50
27492;DHT22;14927;51.210;6.838;2022-12-18T05:55:39;1.40;58.60
27492;DHT22;14927;51.210;6.838;2022-12-18T05:58:25;1.20;58.50
27492;DHT22;14927;51.210;6.838;2022-12-18T06:01:15;1.20;58.60
27492;DHT22;14927;51.210;6.838;2022-12-18T06:04:02;1.20;58.60
27492;DHT22;14927;51.210;6.838;2022-12-18T06:06:47;1.20;58.60
27492;DHT22;14927;51.210;6.838;2022-12-18T06:09:32;1.20;58.60
27492;DHT22;14927;51.210;6.838;2022-12-18T06:12:16;1.20;58.50
27492;DHT22;14927;51.210;6.838;2022-12-18T06:15:01;1.30;58.60
27492;DHT22;14927;51.210;6.838;2022-12-18T06:17:46;1.20;58.50
27492;DHT22;14927;51.210;6.838;2022-12-18T06:20:31;1.30;58.50
27492;DHT22;14927;51.210;6.838;2022-12-18T06:23:15;1.20;58.50
27492;DHT22;14927;51.210;6.838;2022-12-18T06:26:04;1.30;58.50
27492;DHT22;14927;51.210;6.838;2022-12-18T06:28:50;1.30;58.50
27492;DHT22;14927;51.210;6.838;2022-12-18T06:31:34;1.30;58.50
27492;DHT22;14927;51.210;6.838;2022-12-18T06:34:19;1.30;58.50
27492;DHT22;14927;51.210;6.838;2022-12-18T06:37:04;1.40;58.50
27492;DHT22;14927;51.210;6.838;2022-12-18T06:39:48;1.30;58.40
27492;DHT22;14927;51.210;6.838;2022-12-18T06:42:33;1.30;58.40
27492;DHT22;14927;51.210;6.838;2022-12-18T06:45:18;1.30;58.40
27492;DHT22;14927;51.210;6.838;2022-12-18T06:48:03;1.30;58.30
27492;DHT22;14927;51.210;6.838;2022-12-18T06:50:47;1.30;58.30
27492;DHT22;14927;51.210;6.838;2022-12-18T06:53:33;1.30;58.30
27492;DHT22;14927;51.210;6.838;2022-12-18T06:56:17;1.30;58.20
27492;DHT22;14927;51.210;6.838;2022-12-18T06:59:02;1.30;58.20
27492;DHT22;14927;51.210;6.838;2022-12-18T07:01:47;1.30;58.20
27492;DHT22;14927;51.210;6.838;2022-12-18T07:04:32;1.30;58.20
27492;DHT22;14927;51.210;6.838;2022-12-18T07:07:16;1.30;58.20
27492;DHT22;14927;51.210;6.838;2022-12-18T07:10:01;1.30;58.20
27492;DHT22;14927;51.210;6.838;2022-12-18T07:12:46;1.30;58.20
27492;DHT22;14927;51.210;6.838;2022-12-18T07:15:30;1.30;58.20
27492;DHT22;14927;51.210;6.838;2022-12-18T07:18:15;1.30;58.30
27492;DHT22;14927;51.210;6.838;2022-12-18T07:21:09;1.30;58.30
27492;DHT22;14927;51.210;6.838;2022-12-18T07:23:56;1.30;58.30
27492;DHT22;14927;51.210;6.838;2022-12-18T07:26:40;1.30;58.40
27492;DHT22;14927;51.210;6.838;2022-12-18T07:29:25;1.30;58.40
27492;DHT22;14927;51.210;6.838;2022-12-18T07:32:10;1.30;58.40
27492;DHT22;14927;51.210;6.838;2022-12-18T07:34:54;1.30;58.40
27492;DHT22;14927;51.210;6.838;2022-12-18T07:37:39;1.40;58.40
27492;DHT22;14927;51.210;6.838;2022-12-18T07:40:24;1.40;58.40
27492;DHT22;14927;51.210;6.838;2022-12-18T07:43:08;1.40;58.40
27492;DHT22;14927;51.210;6.838;2022-12-18T07:45:53;1.40;58.40
27492;DHT22;14927;51.210;6.838;2022-12-18T07:48:38;1.40;58.40
27492;DHT22;14927;51.210;6.838;2022-12-18T07:51:23;1.50;58.40
27492;DHT22;14927;51.210;6.838;2022-12-18T07:54:07;1.40;58.30
27492;DHT22;14927;51.210;6.838;2022-12-18T07:56:52;1.40;58.30
27492;DHT22;14927;51.210;6.838;2022-12-18T07:59:36;1.50;58.90
27492;DHT22;14927;51.210;6.838;2022-12-18T08:02:21;1.50;58.30
27492;DHT22;14927;51.210;6.838;2022-12-18T08:05:11;1.50;58.20
27492;DHT22;14927;51.210;6.838;2022-12-18T08:07:56;1.50;58.20
27492;DHT22;14927;51.210;6.838;2022-12-18T08:10:49;1.50;58.20
27492;DHT22;14927;51.210;6.838;2022-12-18T08:13:37;1.50;58.10
27492;DHT22;14927;51.210;6.838;2022-12-18T08:16:23;1.50;58.10
27492;DHT22;14927;51.210;6.838;2022-12-18T08:19:09;1.50;58.10
27492;DHT22;14927;51.210;6.838;2022-12-18T08:21:54;1.50;58.10
27492;DHT22;14927;51.210;6.838;2022-12-18T08:24:39;1.50;58.10
27492;DHT22;14927;51.210;6.838;2022-12-18T08:27:26;1.60;58.20
27492;DHT22;14927;51.210;6.838;2022-12-18T08:30:12;1.60;58.10
27492;DHT22;14927;51.210;6.838;2022-12-18T08:33:01;1.60;58.20
27492;DHT22;14927;51.210;6.838;2022-12-18T08:35:46;1.60;58.10
27492;DHT22;14927;51.210;6.838;2022-12-18T08:38:32;1.60;58.20
27492;DHT22;14927;51.210;6.838;2022-12-18T08:41:17;1.70;58.80
27492;DHT22;14927;51.210;6.838;2022-12-18T08:44:02;1.70;58.20
27492;DHT22;14927;51.210;6.838;2022-12-18T08:47:07;1.70;58.20
27492;DHT22;14927;51.210;6.838;2022-12-18T08:49:52;1.80;58.20
27492;DHT22;14927;51.210;6.838;2022-12-18T08:52:36;1.80;58.20
27492;DHT22;14927;51.210;6.838;2022-12-18T08:55:21;1.90;58.20
27492;DHT22;14927;51.210;6.838;2022-12-18T08:58:10;2.00;58.80
27492;DHT22;14927;51.210;6.838;2022-12-18T09:00:59;1.90;58.10
27492;DHT22;14927;51.210;6.838;2022-12-18T09:03:47;2.00;58.10
27492;DHT22;14927;51.210;6.838;2022-12-18T09:06:34;2.00;58.10
27492;DHT22;14927;51.210;6.838;2022-12-18T09:09:22;2.10;58.00
27492;DHT22;14927;51.210;6.838;2022-12-18T09:12:08;2.10;57.90
27492;DHT22;14927;51.210;6.838;2022-12-18T09:15:09;2.20;57.90
27492;DHT22;14927;51.210;6.838;2022-12-18T09:17:53;2.30;57.70
27492;DHT22;14927;51.210;6.838;2022-12-18T09:20:38;2.30;57.80
27492;DHT22;14927;51.210;6.838;2022-12-18T09:23:23;2.30;57.70
27492;DHT22;14927;51.210;6.838;2022-12-18T09:26:08;2.40;57.60
27492;DHT22;14927;51.210;6.838;2022-12-18T09:28:53;2.40;57.50
27492;DHT22;14927;51.210;6.838;2022-12-18T09:31:38;2.40;57.50
27492;DHT22;14927;51.210;6.838;2022-12-18T09:34:23;2.50;57.40
27492;DHT22;14927;51.210;6.838;2022-12-18T09:37:08;2.70;57.50
27492;DHT22;14927;51.210;6.838;2022-12-18T09:39:53;2.60;57.30
27492;DHT22;14927;51.210;6.838;2022-12-18T09:42:37;2.60;57.30
27492;DHT22;14927;51.210;6.838;2022-12-18T09:45:22;2.70;57.20
27492;DHT22;14927;51.210;6.838;2022-12-18T09:48:19;2.70;57.10
27492;DHT22;14927;51.210;6.838;2022-12-18T09:51:23;2.70;57.00
27492;DHT22;14927;51.210;6.838;2022-12-18T09:54:16;2.80;57.00
27492;DHT22;14927;51.210;6.838;2022-12-18T09:57:05;2.90;57.10
27492;DHT22;14927;51.210;6.838;2022-12-18T10:00:25;2.90;57.10
27492;DHT22;14927;51.210;6.838;2022-12-18T10:03:11;2.90;56.90
27492;DHT22;14927;51.210;6.838;2022-12-18T10:09:40;3.00;56.70
27492;DHT22;14927;51.210;6.838;2022-12-18T10:12:43;3.10;56.60
27492;DHT22;14927;51.210;6.838;2022-12-18T10:22:11;3.30;56.70
27492;DHT22;14927;51.210;6.838;2022-12-18T10:28:40;3.40;56.60
27492;DHT22;14927;51.210;6.838;2022-12-18T10:31:25;3.50;56.60
27492;DHT22;14927;51.210;6.838;2022-12-18T10:34:11;3.60;56.60
27492;DHT22;14927;51.210;6.838;2022-12-18T10:36:56;3.70;56.50
27492;DHT22;14927;51.210;6.838;2022-12-18T10:39:41;3.70;56.30
27492;DHT22;14927;51.210;6.838;2022-12-18T10:42:27;3.70;56.30
27492;DHT22;14927;51.210;6.838;2022-12-18T10:45:16;3.70;56.10
27492;DHT22;14927;51.210;6.838;2022-12-18T10:48:04;3.80;55.80
27492;DHT22;14927;51.210;6.838;2022-12-18T10:50:50;3.90;55.90
27492;DHT22;14927;51.210;6.838;2022-12-18T10:53:37;4.00;55.70
27492;DHT22;14927;51.210;6.838;2022-12-18T10:56:24;4.00;55.50
27492;DHT22;14927;51.210;6.838;2022-12-18T10:59:12;4.10;55.40
27492;DHT22;14927;51.210;6.838;2022-12-18T11:01:58;4.20;55.30
27492;DHT22;14927;51.210;6.838;2022-12-18T11:04:51;4.20;55.30
27492;DHT22;14927;51.210;6.838;2022-12-18T11:07:48;4.30;54.90
27492;DHT22;14927;51.210;6.838;2022-12-18T11:10:37;4.40;54.70
27492;DHT22;14927;51.210;6.838;2022-12-18T11:13:26;4.40;54.80
27492;DHT22;14927;51.210;6.838;2022-12-18T11:16:19;4.50;54.70
27492;DHT22;14927;51.210;6.838;2022-12-18T11:19:34;4.60;54.40
27492;DHT22;14927;51.210;6.838;2022-12-18T11:22:32;4.60;53.80
27492;DHT22;14927;51.210;6.838;2022-12-18T11:25:19;4.70;54.00
27492;DHT22;14927;51.210;6.838;2022-12-18T11:28:24;4.80;54.10
27492;DHT22;14927;51.210;6.838;2022-12-18T11:31:27;4.90;54.00
27492;DHT22;14927;51.210;6.838;2022-12-18T11:34:19;4.90;53.70
27492;DHT22;14927;51.210;6.838;2022-12-18T11:37:14;5.00;53.60
27492;DHT22;14927;51.210;6.838;2022-12-18T11:40:03;5.10;53.60
27492;DHT22;14927;51.210;6.838;2022-12-18T11:42:59;5.10;53.20
27492;DHT22;14927;51.210;6.838;2022-12-18T11:45:59;5.20;53.10
27492;DHT22;14927;51.210;6.838;2022-12-18T11:49:01;5.20;53.00
27492;DHT22;14927;51.210;6.838;2022-12-18T11:52:03;5.30;52.80
27492;DHT22;14927;51.210;6.838;2022-12-18T11:55:04;5.30;52.80
27492;DHT22;14927;51.210;6.838;2022-12-18T12:10:33;5.40;52.20
27492;DHT22;14927;51.210;6.838;2022-12-18T12:26:08;5.50;52.30
27492;DHT22;14927;51.210;6.838;2022-12-18T12:32:51;5.50;51.70
27492;DHT22;14927;51.210;6.838;2022-12-18T12:36:00;5.40;51.60
27492;DHT22;14927;51.210;6.838;2022-12-18T12:39:05;5.40;52.00
27492;DHT22;14927;51.210;6.838;2022-12-18T12:41:50;5.40;51.50
27492;DHT22;14927;51.210;6.838;2022-12-18T12:44:56;5.50;51.80
27492;DHT22;14927;51.210;6.838;2022-12-18T12:47:42;5.40;51.60
27492;DHT22;14927;51.210;6.838;2022-12-18T12:50:29;5.40;51.40
27492;DHT22;14927;51.210;6.838;2022-12-18T12:53:30;5.40;51.20
27492;DHT22;14927;51.210;6.838;2022-12-18T12:56:21;5.40;51.00
27492;DHT22;14927;51.210;6.838;2022-12-18T12:59:51;5.40;51.30
27492;DHT22;14927;51.210;6.838;2022-12-18T13:06:04;5.40;50.80
27492;DHT22;14927;51.210;6.838;2022-12-18T13:08:55;5.30;51.00
27492;DHT22;14927;51.210;6.838;2022-12-18T13:11:45;5.40;51.50
27492;DHT22;14927;51.210;6.838;2022-12-18T13:14:50;5.30;52.10
27492;DHT22;14927;51.210;6.838;2022-12-18T13:17:35;5.30;51.40
27492;DHT22;14927;51.210;6.838;2022-12-18T13:20:35;5.30;51.30
27492;DHT22;14927;51.210;6.838;2022-12-18T13:29:04;5.30;51.40
27492;DHT22;14927;51.210;6.838;2022-12-18T13:34:35;5.30;51.40
27492;DHT22;14927;51.210;6.838;2022-12-18T13:46:44;5.50;51.20
27492;DHT22;14927;51.210;6.838;2022-12-18T13:49:39;5.40;51.00
27492;DHT22;14927;51.210;6.838;2022-12-18T13:52:28;5.40;50.90
27492;DHT22;14927;51.210;6.838;2022-12-18T13:55:21;5.40;50.90
27492;DHT22;14927;51.210;6.838;2022-12-18T13:58:06;5.40;50.90
27492;DHT22;14927;51.210;6.838;2022-12-18T14:00:55;5.40;50.70
27492;DHT22;14927;51.210;6.838;2022-12-18T14:03:44;5.40;50.60
27492;DHT22;14927;51.210;6.838;2022-12-18T14:06:31;5.40;50.50
27492;DHT22;14927;51.210;6.838;2022-12-18T14:09:29;5.40;50.30
27492;DHT22;14927;51.210;6.838;2022-12-18T14:12:51;5.50;50.40
27492;DHT22;14927;51.210;6.838;2022-12-18T14:15:43;5.40;50.40
27492;DHT22;14927;51.210;6.838;2022-12-18T14:21:34;5.40;50.30
27492;DHT22;14927;51.210;6.838;2022-12-18T14:24:21;5.50;50.20
27492;DHT22;14927;51.210;6.838;2022-12-18T14:27:21;5.50;50.40
27492;DHT22;14927;51.210;6.838;2022-12-18T14:30:38;5.50;50.30
27492;DHT22;14927;51.210;6.838;2022-12-18T14:33:27;5.50;50.10
27492;DHT22;14927;51.210;6.838;2022-12-18T14:36:20;5.50;50.50
27492;DHT22;14927;51.210;6.838;2022-12-18T14:39:17;5.50;50.20
27492;DHT22;14927;51.210;6.838;2022-12-18T14:42:04;5.50;50.10
27492;DHT22;14927;51.210;6.838;2022-12-18T14:44:49;5.50;50.30
27492;DHT22;14927;51.210;6.838;2022-12-18T14:47:34;5.50;50.20
27492;DHT22;14927;51.210;6.838;2022-12-18T14:50:18;5.50;50.10
27492;DHT22;14927;51.210;6.838;2022-12-18T14:53:04;5.50;50.10
27492;DHT22;14927;51.210;6.838;2022-12-18T14:55:49;5.40;50.10
27492;DHT22;14927;51.210;6.838;2022-12-18T14:58:34;5.50;50.10
27492;DHT22;14927;51.210;6.838;2022-12-18T15:01:21;5.40;50.00
27492;DHT22;14927;51.210;6.838;2022-12-18T15:07:20;5.40;49.80
27492;DHT22;14927;51.210;6.838;2022-12-18T15:10:19;5.40;50.00
27492;DHT22;14927;51.210;6.838;2022-12-18T15:15:49;5.30;50.10
27492;DHT22;14927;51.210;6.838;2022-12-18T15:18:41;5.30;50.00
27492;DHT22;14927;51.210;6.838;2022-12-18T15:21:31;5.30;50.00
27492;DHT22;14927;51.210;6.838;2022-12-18T15:24:30;5.20;50.00
27492;DHT22;14927;51.210;6.838;2022-12-18T15:27:33;5.20;49.90
27492;DHT22;14927;51.210;6.838;2022-12-18T15:30:23;5.20;49.90
27492;DHT22;14927;51.210;6.838;2022-12-18T15:33:29;5.20;50.10
27492;DHT22;14927;51.210;6.838;2022-12-18T15:36:23;5.20;50.00
27492;DHT22;14927;51.210;6.838;2022-12-18T15:39:19;5.10;50.10
27492;DHT22;14927;51.210;6.838;2022-12-18T15:42:09;5.20;50.10
27492;DHT22;14927;51.210;6.838;2022-12-18T15:45:16;5.10;50.20
27492;DHT22;14927;51.210;6.838;2022-12-18T15:48:20;5.10;50.20
27492;DHT22;14927;51.210;6.838;2022-12-18T15:51:19;5.10;50.30
27492;DHT22;14927;51.210;6.838;2022-12-18T15:54:12;5.10;50.20
27492;DHT22;14927;51.210;6.838;2022-12-18T15:57:01;5.00;50.90
27492;DHT22;14927;51.210;6.838;2022-12-18T16:00:05;5.10;50.40
27492;DHT22;14927;51.210;6.838;2022-12-18T16:02:50;5.00;50.40
27492;DHT22;14927;51.210;6.838;2022-12-18T16:05:35;5.00;50.40
27492;DHT22;14927;51.210;6.838;2022-12-18T16:08:19;5.00;50.40
27492;DHT22;14927;51.210;6.838;2022-12-18T16:11:04;5.00;50.40
27492;DHT22;14927;51.210;6.838;2022-12-18T16:13:53;4.90;50.50
27492;DHT22;14927;51.210;6.838;2022-12-18T16:16:40;4.90;50.50
27492;DHT22;14927;51.210;6.838;2022-12-18T16:19:26;4.80;50.50
27492;DHT22;14927;51.210;6.838;2022-12-18T16:22:32;4.90;50.70
27492;DHT22;14927;51.210;6.838;2022-12-18T16:25:24;4.70;50.50
27492;DHT22;14927;51.210;6.838;2022-12-18T16:28:13;4.80;50.70
27492;DHT22;14927;51.210;6.838;2022-12-18T16:30:58;4.80;50.90
27492;DHT22;14927;51.210;6.838;2022-12-18T16:33:47;4.80;51.00
27492;DHT22;14927;51.210;6.838;2022-12-18T16:36:31;4.70;51.10
27492;DHT22;14927;51.210;6.838;2022-12-18T16:39:17;4.60;51.20
27492;DHT22;14927;51.210;6.838;2022-12-18T16:42:19;4.70;51.30
27492;DHT22;14927;51.210;6.838;2022-12-18T16:45:08;4.70;51.40
27492;DHT22;14927;51.210;6.838;2022-12-18T16:47:55;4.70;51.50
27492;DHT22;14927;51.210;6.838;2022-12-18T16:50:43;4.70;51.60
27492;DHT22;14927;51.210;6.838;2022-12-18T16:53:28;4.60;51.70
27492;DHT22;14927;51.210;6.838;2022-12-18T16:56:13;4.70;51.90
27492;DHT22;14927;51.210;6.838;2022-12-18T16:59:02;4.80;52.00
27492;DHT22;14927;51.210;6.838;2022-12-18T17:01:47;4.60;52.00
27492;DHT22;14927;51.210;6.838;2022-12-18T17:04:32;4.60;52.10
27492;DHT22;14927;51.210;6.838;2022-12-18T17:07:17;4.60;52.20
27492;DHT22;14927;51.210;6.838;2022-12-18T17:10:05;4.60;52.40
27492;DHT22;14927;51.210;6.838;2022-12-18T17:12:50;4.60;52.40
27492;DHT22;14927;51.210;6.838;2022-12-18T17:15:35;4.60;52.50
27492;DHT22;14927;51.210;6.838;2022-12-18T17:18:20;4.60;52.50
27492;DHT22;14927;51.210;6.838;2022-12-18T17:21:05;4.60;52.60
27492;DHT22;14927;51.210;6.838;2022-12-18T17:23:52;4.60;52.70
27492;DHT22;14927;51.210;6.838;2022-12-18T17:26:40;4.50;52.80
27492;DHT22;14927;51.210;6.838;2022-12-18T17:29:25;4.60;52.90
27492;DHT22;14927;51.210;6.838;2022-12-18T17:32:12;4.60;53.00
27492;DHT22;14927;51.210;6.838;2022-12-18T17:34:57;4.60;53.00
27492;DHT22;14927;51.210;6.838;2022-12-18T17:37:48;4.60;53.00
27492;DHT22;14927;51.210;6.838;2022-12-18T17:40:32;4.70;53.10
27492;DHT22;14927;51.210;6.838;2022-12-18T17:43:17;4.50;53.00
27492;DHT22;14927;51.210;6.838;2022-12-18T17:46:03;4.50;53.00
27492;DHT22;14927;51.210;6.838;2022-12-18T17:48:49;4.50;53.00
27492;DHT22;14927;51.210;6.838;2022-12-18T17:51:34;4.50;53.20
27492;DHT22;14927;51.210;6.838;2022-12-18T17:54:18;4.50;53.20
27492;DHT22;14927;51.210;6.838;2022-12-18T17:57:04;4.50;53.20
27492;DHT22;14927;51.210;6.838;2022-12-18T17:59:49;4.50;53.20
27492;DHT22;14927;51.210;6.838;2022-12-18T18:02:33;4.40;53.30
27492;DHT22;14927;51.210;6.838;2022-12-18T18:05:18;4.50;53.30
27492;DHT22;14927;51.210;6.838;2022-12-18T18:08:03;4.70;53.50
27492;DHT22;14927;51.210;6.838;2022-12-18T18:10:49;4.50;53.40
27492;DHT22;14927;51.210;6.838;2022-12-18T18:13:34;4.50;53.50
27492;DHT22;14927;51.210;6.838;2022-12-18T18:16:41;4.40;53.40
27492;DHT22;14927;51.210;6.838;2022-12-18T18:19:27;4.50;53.50
27492;DHT22;14927;51.210;6.838;2022-12-18T18:22:12;4.40;53.50
27492;DHT22;14927;51.210;6.838;2022-12-18T18:24:56;4.40;53.50
27492;DHT22;14927;51.210;6.838;2022-12-18T18:27:41;4.40;53.60
27492;DHT22;14927;51.210;6.838;2022-12-18T18:30:26;4.40;53.60
27492;DHT22;14927;51.210;6.838;2022-12-18T18:33:10;4.40;53.70
27492;DHT22;14927;51.210;6.838;2022-12-18T18:35:55;4.40;53.70
27492;DHT22;14927;51.210;6.838;2022-12-18T18:38:40;4.40;53.70
27492;DHT22;14927;51.210;6.838;2022-12-18T18:41:27;4.40;53.80
27492;DHT22;14927;51.210;6.838;2022-12-18T18:44:14;4.40;53.80
27492;DHT22;14927;51.210;6.838;2022-12-18T18:47:03;4.30;53.80
27492;DHT22;14927;51.210;6.838;2022-12-18T18:49:48;4.40;53.90
27492;DHT22;14927;51.210;6.838;2022-12-18T18:52:32;4.40;53.90
27492;DHT22;14927;51.210;6.838;2022-12-18T18:55:17;4.30;53.80
27492;DHT22;14927;51.210;6.838;2022-12-18T18:58:02;4.40;53.80
27492;DHT22;14927;51.210;6.838;2022-12-18T19:00:57;4.40;53.90
27492;DHT22;14927;51.210;6.838;2022-12-18T19:03:43;4.30;53.90
27492;DHT22;14927;51.210;6.838;2022-12-18T19:06:28;4.30;53.90
27492;DHT22;14927;51.210;6.838;2022-12-18T19:09:16;4.30;54.50
27492;DHT22;14927;51.210;6.838;2022-12-18T19:12:02;4.30;53.90
27492;DHT22;14927;51.210;6.838;2022-12-18T19:15:22;4.30;54.00
27492;DHT22;14927;51.210;6.838;2022-12-18T19:18:08;4.30;54.00
27492;DHT22;14927;51.210;6.838;2022-12-18T19:21:01;4.30;54.10
27492;DHT22;14927;51.210;6.838;2022-12-18T19:23:47;4.30;54.10
27492;DHT22;14927;51.210;6.838;2022-12-18T19:26:31;4.30;54.20
27492;DHT22;14927;51.210;6.838;2022-12-18T19:29:16;4.40;54.30
27492;DHT22;14927;51.210;6.838;2022-12-18T19:32:01;4.40;54.30
27492;DHT22;14927;51.210;6.838;2022-12-18T19:34:45;4.40;54.30
27492;DHT22;14927;51.210;6.838;2022-12-18T19:37:31;4.30;54.30
27492;DHT22;14927;51.210;6.838;2022-12-18T19:40:18;4.40;54.30